sensor_id;sensor_type;location;lat;lon;timestamp;P1;durP1;ratioP1;P2;durP2;ratioP2
48667;SDS011;34453;52.198;5.004;2024-01-30T00:01:40;15.65;;;11.20;;
48667;SDS011;34453;52.198;5.004;2024-01-30T00:04:06;12.32;;;10.80;;
48667;SDS011;34453;52.198;5.004;2024-01-30T00:06:32;12.60;;;9.43;;
48667;SDS011;34453;52.198;5.004;2024-01-30T00:08:57;16.25;;;10.10;;
48667;SDS011;34453;52.198;5.004;2024-01-30T00:11:23;16.98;;;10.25;;
48667;SDS011;34453;52.198;5.004;2024-01-30T00:13:51;15.77;;;10.50;;
48667;SDS011;34453;52.198;5.004;2024-01-30T00:16:20;12.45;;;9.85;;
48667;SDS011;34453;52.198;5.004;2024-01-30T00:18:47;14.00;;;10.27;;
48667;SDS011;34453;52.198;5.004;2024-01-30T00:21:13;14.57;;;10.43;;
48667;SDS011;34453;52.198;5.004;2024-01-30T00:23:39;20.50;;;12.13;;
48667;SDS011;34453;52.198;5.004;2024-01-30T00:26:04;14.27;;;9.77;;
48667;SDS011;34453;52.198;5.004;2024-01-30T00:28:30;13.48;;;9.75;;
48667;SDS011;34453;52.198;5.004;2024-01-30T00:30:57;12.65;;;10.10;;
48667;SDS011;34453;52.198;5.004;2024-01-30T00:33:22;15.23;;;10.07;;
48667;SDS011;34453;52.198;5.004;2024-01-30T00:35:48;14.73;;;10.80;;
48667;SDS011;34453;52.198;5.004;2024-01-30T00:38:13;12.10;;;9.80;;
48667;SDS011;34453;52.198;5.004;2024-01-30T00:40:39;11.10;;;9.93;;
48667;SDS011;34453;52.198;5.004;2024-01-30T00:43:04;11.27;;;10.13;;
48667;SDS011;34453;52.198;5.004;2024-01-30T00:45:30;17.90;;;9.60;;
48667;SDS011;34453;52.198;5.004;2024-01-30T00:47:56;12.93;;;9.00;;
48667;SDS011;34453;52.198;5.004;2024-01-30T00:50:21;11.93;;;9.65;;
48667;SDS011;34453;52.198;5.004;2024-01-30T00:52:47;11.95;;;10.45;;
48667;SDS011;34453;52.198;5.004;2024-01-30T00:55:13;14.23;;;9.88;;
48667;SDS011;34453;52.198;5.004;2024-01-30T00:57:39;12.85;;;10.45;;
48667;SDS011;34453;52.198;5.004;2024-01-30T01:00:05;15.93;;;9.93;;
48667;SDS011;34453;52.198;5.004;2024-01-30T01:02:33;11.15;;;9.77;;
48667;SDS011;34453;52.198;5.004;2024-01-30T01:05:00;15.15;;;10.07;;
48667;SDS011;34453;52.198;5.004;2024-01-30T01:07:25;14.35;;;9.27;;
48667;SDS011;34453;52.198;5.004;2024-01-30T01:09:51;14.23;;;10.50;;
48667;SDS011;34453;52.198;5.004;2024-01-30T01:12:16;12.35;;;10.13;;
48667;SDS011;34453;52.198;5.004;2024-01-30T01:14:42;15.07;;;9.73;;
48667;SDS011;34453;52.198;5.004;2024-01-30T01:17:07;10.32;;;9.32;;
48667;SDS011;34453;52.198;5.004;2024-01-30T01:19:33;13.80;;;10.27;;
48667;SDS011;34453;52.198;5.004;2024-01-30T01:21:58;13.85;;;9.48;;
48667;SDS011;34453;52.198;5.004;2024-01-30T01:24:24;15.20;;;9.90;;
48667;SDS011;34453;52.198;5.004;2024-01-30T01:26:49;19.98;;;10.10;;
48667;SDS011;34453;52.198;5.004;2024-01-30T01:29:15;15.15;;;9.30;;
48667;SDS011;34453;52.198;5.004;2024-01-30T01:31:41;11.38;;;8.73;;
48667;SDS011;34453;52.198;5.004;2024-01-30T01:34:11;14.75;;;9.75;;
48667;SDS011;34453;52.198;5.004;2024-01-30T01:36:37;14.93;;;9.65;;
48667;SDS011;34453;52.198;5.004;2024-01-30T01:39:02;14.85;;;10.45;;
48667;SDS011;34453;52.198;5.004;2024-01-30T01:41:34;14.30;;;8.63;;
48667;SDS011;34453;52.198;5.004;2024-01-30T01:44:00;13.52;;;11.23;;
48667;SDS011;34453;52.198;5.004;2024-01-30T01:46:26;13.60;;;9.45;;
48667;SDS011;34453;52.198;5.004;2024-01-30T01:48:53;10.75;;;8.95;;
48667;SDS011;34453;52.198;5.004;2024-01-30T01:51:20;10.80;;;9.40;;
48667;SDS011;34453;52.198;5.004;2024-01-30T01:53:46;16.58;;;10.75;;
48667;SDS011;34453;52.198;5.004;2024-01-30T01:56:12;15.70;;;9.60;;
48667;SDS011;34453;52.198;5.004;2024-01-30T01:58:38;19.73;;;9.13;;
48667;SDS011;34453;52.198;5.004;2024-01-30T02:01:05;13.38;;;8.65;;
48667;SDS011;34453;52.198;5.004;2024-01-30T02:03:31;14.93;;;9.07;;
48667;SDS011;34453;52.198;5.004;2024-01-30T02:05:57;13.60;;;9.55;;
48667;SDS011;34453;52.198;5.004;2024-01-30T02:08:23;10.82;;;8.93;;
48667;SDS011;34453;52.198;5.004;2024-01-30T02:10:49;13.70;;;10.20;;
48667;SDS011;34453;52.198;5.004;2024-01-30T02:13:15;15.73;;;9.25;;
48667;SDS011;34453;52.198;5.004;2024-01-30T02:15:40;15.98;;;8.98;;
48667;SDS011;34453;52.198;5.004;2024-01-30T02:18:06;11.18;;;9.35;;
48667;SDS011;34453;52.198;5.004;2024-01-30T02:20:31;11.65;;;8.45;;
48667;SDS011;34453;52.198;5.004;2024-01-30T02:23:00;10.10;;;8.52;;
48667;SDS011;34453;52.198;5.004;2024-01-30T02:25:34;13.27;;;8.88;;
48667;SDS011;34453;52.198;5.004;2024-01-30T02:28:02;12.02;;;8.65;;
48667;SDS011;34453;52.198;5.004;2024-01-30T02:30:27;14.73;;;9.63;;
48667;SDS011;34453;52.198;5.004;2024-01-30T02:32:53;10.00;;;8.98;;
48667;SDS011;34453;52.198;5.004;2024-01-30T02:35:18;12.35;;;8.50;;
48667;SDS011;34453;52.198;5.004;2024-01-30T02:37:44;11.07;;;9.30;;
48667;SDS011;34453;52.198;5.004;2024-01-30T02:40:09;14.45;;;9.80;;
48667;SDS011;34453;52.198;5.004;2024-01-30T02:42:35;16.50;;;9.32;;
48667;SDS011;34453;52.198;5.004;2024-01-30T02:45:00;9.95;;;8.68;;
48667;SDS011;34453;52.198;5.004;2024-01-30T02:47:26;21.75;;;9.55;;
48667;SDS011;34453;52.198;5.004;2024-01-30T02:49:51;16.58;;;9.52;;
48667;SDS011;34453;52.198;5.004;2024-01-30T02:52:17;10.52;;;8.40;;
48667;SDS011;34453;52.198;5.004;2024-01-30T02:54:42;16.08;;;8.18;;
48667;SDS011;34453;52.198;5.004;2024-01-30T02:57:08;12.80;;;8.38;;
48667;SDS011;34453;52.198;5.004;2024-01-30T02:59:33;11.45;;;8.77;;
48667;SDS011;34453;52.198;5.004;2024-01-30T03:02:01;12.02;;;8.10;;
48667;SDS011;34453;52.198;5.004;2024-01-30T03:04:26;15.77;;;8.70;;
48667;SDS011;34453;52.198;5.004;2024-01-30T03:06:52;12.55;;;9.10;;
48667;SDS011;34453;52.198;5.004;2024-01-30T03:09:18;12.80;;;8.68;;
48667;SDS011;34453;52.198;5.004;2024-01-30T03:11:43;11.82;;;8.40;;
48667;SDS011;34453;52.198;5.004;2024-01-30T03:14:09;12.07;;;9.57;;
48667;SDS011;34453;52.198;5.004;2024-01-30T03:16:36;18.55;;;10.40;;
48667;SDS011;34453;52.198;5.004;2024-01-30T03:19:03;14.15;;;9.38;;
48667;SDS011;34453;52.198;5.004;2024-01-30T03:21:29;10.57;;;8.70;;
48667;SDS011;34453;52.198;5.004;2024-01-30T03:23:54;11.65;;;8.60;;
48667;SDS011;34453;52.198;5.004;2024-01-30T03:26:20;14.38;;;9.88;;
48667;SDS011;34453;52.198;5.004;2024-01-30T03:28:45;9.73;;;8.68;;
48667;SDS011;34453;52.198;5.004;2024-01-30T03:31:13;10.27;;;7.85;;
48667;SDS011;34453;52.198;5.004;2024-01-30T03:33:39;14.30;;;8.82;;
48667;SDS011;34453;52.198;5.004;2024-01-30T03:36:05;17.38;;;9.18;;
48667;SDS011;34453;52.198;5.004;2024-01-30T03:38:31;13.70;;;9.45;;
48667;SDS011;34453;52.198;5.004;2024-01-30T03:40:58;15.02;;;9.15;;
48667;SDS011;34453;52.198;5.004;2024-01-30T03:43:24;10.90;;;8.10;;
48667;SDS011;34453;52.198;5.004;2024-01-30T03:45:49;14.30;;;9.63;;
48667;SDS011;34453;52.198;5.004;2024-01-30T03:48:15;15.63;;;8.77;;
48667;SDS011;34453;52.198;5.004;2024-01-30T03:50:40;14.00;;;9.77;;
48667;SDS011;34453;52.198;5.004;2024-01-30T03:53:06;9.93;;;8.00;;
48667;SDS011;34453;52.198;5.004;2024-01-30T03:55:31;17.27;;;9.82;;
48667;SDS011;34453;52.198;5.004;2024-01-30T03:57:57;13.18;;;8.73;;
48667;SDS011;34453;52.198;5.004;2024-01-30T04:00:23;10.60;;;8.10;;
48667;SDS011;34453;52.198;5.004;2024-01-30T04:02:48;10.70;;;8.45;;
48667;SDS011;34453;52.198;5.004;2024-01-30T04:05:16;10.50;;;9.02;;
48667;SDS011;34453;52.198;5.004;2024-01-30T04:07:45;11.55;;;9.25;;
48667;SDS011;34453;52.198;5.004;2024-01-30T04:10:11;12.57;;;8.90;;
48667;SDS011;34453;52.198;5.004;2024-01-30T04:12:36;12.95;;;8.25;;
48667;SDS011;34453;52.198;5.004;2024-01-30T04:15:02;15.07;;;8.95;;
48667;SDS011;34453;52.198;5.004;2024-01-30T04:17:28;10.70;;;8.52;;
48667;SDS011;34453;52.198;5.004;2024-01-30T04:19:54;17.75;;;10.23;;
48667;SDS011;34453;52.198;5.004;2024-01-30T04:22:20;11.25;;;8.48;;
48667;SDS011;34453;52.198;5.004;2024-01-30T04:24:46;10.75;;;8.82;;
48667;SDS011;34453;52.198;5.004;2024-01-30T04:27:11;17.67;;;9.93;;
48667;SDS011;34453;52.198;5.004;2024-01-30T04:29:37;13.20;;;8.40;;
48667;SDS011;34453;52.198;5.004;2024-01-30T04:32:03;15.93;;;9.38;;
48667;SDS011;34453;52.198;5.004;2024-01-30T04:34:28;14.90;;;9.70;;
48667;SDS011;34453;52.198;5.004;2024-01-30T04:36:54;17.67;;;8.50;;
48667;SDS011;34453;52.198;5.004;2024-01-30T04:39:19;14.55;;;8.50;;
48667;SDS011;34453;52.198;5.004;2024-01-30T04:41:45;11.48;;;8.93;;
48667;SDS011;34453;52.198;5.004;2024-01-30T04:44:10;9.27;;;7.88;;
48667;SDS011;34453;52.198;5.004;2024-01-30T04:46:36;12.60;;;9.07;;
48667;SDS011;34453;52.198;5.004;2024-01-30T04:49:01;14.35;;;9.43;;
48667;SDS011;34453;52.198;5.004;2024-01-30T04:51:28;11.90;;;8.27;;
48667;SDS011;34453;52.198;5.004;2024-01-30T04:53:54;9.60;;;8.27;;
48667;SDS011;34453;52.198;5.004;2024-01-30T04:56:20;14.25;;;9.02;;
48667;SDS011;34453;52.198;5.004;2024-01-30T04:58:45;9.50;;;8.48;;
48667;SDS011;34453;52.198;5.004;2024-01-30T05:01:14;13.13;;;9.73;;
48667;SDS011;34453;52.198;5.004;2024-01-30T05:03:43;10.93;;;8.02;;
48667;SDS011;34453;52.198;5.004;2024-01-30T05:06:08;10.60;;;8.43;;
48667;SDS011;34453;52.198;5.004;2024-01-30T05:08:34;14.18;;;8.02;;
48667;SDS011;34453;52.198;5.004;2024-01-30T05:11:02;10.43;;;7.78;;
48667;SDS011;34453;52.198;5.004;2024-01-30T05:13:29;15.10;;;10.55;;
48667;SDS011;34453;52.198;5.004;2024-01-30T05:15:58;8.40;;;7.55;;
48667;SDS011;34453;52.198;5.004;2024-01-30T05:18:24;9.48;;;8.02;;
48667;SDS011;34453;52.198;5.004;2024-01-30T05:20:50;13.55;;;8.60;;
48667;SDS011;34453;52.198;5.004;2024-01-30T05:23:16;11.02;;;8.95;;
48667;SDS011;34453;52.198;5.004;2024-01-30T05:25:41;14.52;;;9.10;;
48667;SDS011;34453;52.198;5.004;2024-01-30T05:28:07;11.05;;;9.75;;
48667;SDS011;34453;52.198;5.004;2024-01-30T05:30:33;14.43;;;9.10;;
48667;SDS011;34453;52.198;5.004;2024-01-30T05:32:58;17.75;;;10.15;;
48667;SDS011;34453;52.198;5.004;2024-01-30T05:35:24;12.35;;;9.05;;
48667;SDS011;34453;52.198;5.004;2024-01-30T05:37:49;13.02;;;10.50;;
48667;SDS011;34453;52.198;5.004;2024-01-30T05:40:15;14.63;;;8.93;;
48667;SDS011;34453;52.198;5.004;2024-01-30T05:42:41;18.75;;;9.93;;
48667;SDS011;34453;52.198;5.004;2024-01-30T05:45:07;9.15;;;8.25;;
48667;SDS011;34453;52.198;5.004;2024-01-30T05:47:33;15.88;;;9.02;;
48667;SDS011;34453;52.198;5.004;2024-01-30T05:49:59;9.05;;;7.95;;
48667;SDS011;34453;52.198;5.004;2024-01-30T05:52:24;9.50;;;8.27;;
48667;SDS011;34453;52.198;5.004;2024-01-30T05:54:50;13.57;;;8.48;;
48667;SDS011;34453;52.198;5.004;2024-01-30T05:57:18;12.98;;;8.50;;
48667;SDS011;34453;52.198;5.004;2024-01-30T05:59:44;15.95;;;9.20;;
48667;SDS011;34453;52.198;5.004;2024-01-30T06:02:10;16.77;;;8.82;;
48667;SDS011;34453;52.198;5.004;2024-01-30T06:04:36;12.57;;;8.48;;
48667;SDS011;34453;52.198;5.004;2024-01-30T06:07:02;12.30;;;9.38;;
48667;SDS011;34453;52.198;5.004;2024-01-30T06:09:27;11.40;;;8.60;;
48667;SDS011;34453;52.198;5.004;2024-01-30T06:11:54;13.65;;;7.80;;
48667;SDS011;34453;52.198;5.004;2024-01-30T06:14:20;12.02;;;7.15;;
48667;SDS011;34453;52.198;5.004;2024-01-30T06:16:45;10.00;;;8.82;;
48667;SDS011;34453;52.198;5.004;2024-01-30T06:19:11;17.30;;;8.95;;
48667;SDS011;34453;52.198;5.004;2024-01-30T06:21:37;16.45;;;8.90;;
48667;SDS011;34453;52.198;5.004;2024-01-30T06:24:03;15.18;;;8.57;;
48667;SDS011;34453;52.198;5.004;2024-01-30T06:26:29;13.13;;;8.18;;
48667;SDS011;34453;52.198;5.004;2024-01-30T06:28:54;19.40;;;9.15;;
48667;SDS011;34453;52.198;5.004;2024-01-30T06:31:21;12.48;;;7.95;;
48667;SDS011;34453;52.198;5.004;2024-01-30T06:33:47;12.38;;;8.10;;
48667;SDS011;34453;52.198;5.004;2024-01-30T06:36:13;12.35;;;9.38;;
48667;SDS011;34453;52.198;5.004;2024-01-30T06:38:39;13.40;;;9.18;;
48667;SDS011;34453;52.198;5.004;2024-01-30T06:41:04;14.23;;;9.38;;
48667;SDS011;34453;52.198;5.004;2024-01-30T06:43:30;11.50;;;8.10;;
48667;SDS011;34453;52.198;5.004;2024-01-30T06:45:55;11.23;;;8.15;;
48667;SDS011;34453;52.198;5.004;2024-01-30T06:48:21;12.95;;;8.05;;
48667;SDS011;34453;52.198;5.004;2024-01-30T06:50:46;9.98;;;8.13;;
48667;SDS011;34453;52.198;5.004;2024-01-30T06:53:13;10.57;;;8.35;;
48667;SDS011;34453;52.198;5.004;2024-01-30T06:55:38;8.60;;;7.80;;
48667;SDS011;34453;52.198;5.004;2024-01-30T06:58:04;8.82;;;7.93;;
48667;SDS011;34453;52.198;5.004;2024-01-30T07:00:29;11.18;;;7.57;;
48667;SDS011;34453;52.198;5.004;2024-01-30T07:02:54;11.63;;;8.57;;
48667;SDS011;34453;52.198;5.004;2024-01-30T07:05:20;11.95;;;8.10;;
48667;SDS011;34453;52.198;5.004;2024-01-30T07:07:47;12.35;;;8.13;;
48667;SDS011;34453;52.198;5.004;2024-01-30T07:10:12;13.75;;;7.75;;
48667;SDS011;34453;52.198;5.004;2024-01-30T07:12:38;17.80;;;8.70;;
48667;SDS011;34453;52.198;5.004;2024-01-30T07:15:04;10.40;;;8.43;;
48667;SDS011;34453;52.198;5.004;2024-01-30T07:17:33;12.48;;;7.95;;
48667;SDS011;34453;52.198;5.004;2024-01-30T07:19:58;10.48;;;8.60;;
48667;SDS011;34453;52.198;5.004;2024-01-30T07:22:24;10.63;;;8.13;;
48667;SDS011;34453;52.198;5.004;2024-01-30T07:24:50;17.67;;;8.68;;
48667;SDS011;34453;52.198;5.004;2024-01-30T07:27:17;11.35;;;8.30;;
48667;SDS011;34453;52.198;5.004;2024-01-30T07:29:43;12.77;;;9.10;;
48667;SDS011;34453;52.198;5.004;2024-01-30T07:32:09;15.88;;;8.35;;
48667;SDS011;34453;52.198;5.004;2024-01-30T07:34:35;12.95;;;9.38;;
48667;SDS011;34453;52.198;5.004;2024-01-30T07:37:01;11.73;;;8.20;;
48667;SDS011;34453;52.198;5.004;2024-01-30T07:39:27;12.80;;;9.70;;
48667;SDS011;34453;52.198;5.004;2024-01-30T07:41:53;13.18;;;8.85;;
48667;SDS011;34453;52.198;5.004;2024-01-30T07:44:20;13.50;;;8.20;;
48667;SDS011;34453;52.198;5.004;2024-01-30T07:46:45;13.88;;;8.43;;
48667;SDS011;34453;52.198;5.004;2024-01-30T07:49:11;11.90;;;7.63;;
48667;SDS011;34453;52.198;5.004;2024-01-30T07:51:36;11.40;;;8.02;;
48667;SDS011;34453;52.198;5.004;2024-01-30T07:54:02;13.68;;;8.15;;
48667;SDS011;34453;52.198;5.004;2024-01-30T07:56:27;18.83;;;9.10;;
48667;SDS011;34453;52.198;5.004;2024-01-30T07:58:53;13.57;;;7.90;;
48667;SDS011;34453;52.198;5.004;2024-01-30T08:01:19;14.50;;;8.60;;
48667;SDS011;34453;52.198;5.004;2024-01-30T08:03:44;11.57;;;7.93;;
48667;SDS011;34453;52.198;5.004;2024-01-30T08:06:10;9.48;;;7.78;;
48667;SDS011;34453;52.198;5.004;2024-01-30T08:08:35;11.88;;;8.88;;
48667;SDS011;34453;52.198;5.004;2024-01-30T08:11:01;15.88;;;8.10;;
48667;SDS011;34453;52.198;5.004;2024-01-30T08:13:26;14.10;;;8.20;;
48667;SDS011;34453;52.198;5.004;2024-01-30T08:15:52;13.65;;;7.82;;
48667;SDS011;34453;52.198;5.004;2024-01-30T08:18:17;10.43;;;6.97;;
48667;SDS011;34453;52.198;5.004;2024-01-30T08:20:43;11.90;;;7.60;;
48667;SDS011;34453;52.198;5.004;2024-01-30T08:23:08;11.48;;;8.88;;
48667;SDS011;34453;52.198;5.004;2024-01-30T08:25:35;12.70;;;8.50;;
48667;SDS011;34453;52.198;5.004;2024-01-30T08:28:01;13.48;;;10.07;;
48667;SDS011;34453;52.198;5.004;2024-01-30T08:30:27;12.23;;;7.65;;
48667;SDS011;34453;52.198;5.004;2024-01-30T08:32:52;20.75;;;8.75;;
48667;SDS011;34453;52.198;5.004;2024-01-30T08:35:18;15.77;;;8.30;;
48667;SDS011;34453;52.198;5.004;2024-01-30T08:37:43;16.13;;;10.63;;
48667;SDS011;34453;52.198;5.004;2024-01-30T08:40:10;13.15;;;8.25;;
48667;SDS011;34453;52.198;5.004;2024-01-30T08:42:35;11.73;;;8.63;;
48667;SDS011;34453;52.198;5.004;2024-01-30T08:45:01;19.35;;;8.95;;
48667;SDS011;34453;52.198;5.004;2024-01-30T08:47:27;12.38;;;8.90;;
48667;SDS011;34453;52.198;5.004;2024-01-30T08:49:52;15.25;;;8.88;;
48667;SDS011;34453;52.198;5.004;2024-01-30T08:52:18;15.73;;;8.27;;
48667;SDS011;34453;52.198;5.004;2024-01-30T08:54:43;20.08;;;9.23;;
48667;SDS011;34453;52.198;5.004;2024-01-30T08:57:09;16.45;;;8.65;;
48667;SDS011;34453;52.198;5.004;2024-01-30T08:59:34;13.35;;;7.97;;
48667;SDS011;34453;52.198;5.004;2024-01-30T09:02:00;19.95;;;9.85;;
48667;SDS011;34453;52.198;5.004;2024-01-30T09:04:25;21.27;;;9.00;;
48667;SDS011;34453;52.198;5.004;2024-01-30T09:06:51;13.50;;;8.27;;
48667;SDS011;34453;52.198;5.004;2024-01-30T09:09:17;13.52;;;8.93;;
48667;SDS011;34453;52.198;5.004;2024-01-30T09:11:42;13.75;;;8.75;;
48667;SDS011;34453;52.198;5.004;2024-01-30T09:14:08;13.52;;;8.35;;
48667;SDS011;34453;52.198;5.004;2024-01-30T09:16:34;17.98;;;9.75;;
48667;SDS011;34453;52.198;5.004;2024-01-30T09:18:59;14.50;;;8.55;;
48667;SDS011;34453;52.198;5.004;2024-01-30T09:21:25;13.38;;;9.18;;
48667;SDS011;34453;52.198;5.004;2024-01-30T09:23:53;18.00;;;8.65;;
48667;SDS011;34453;52.198;5.004;2024-01-30T09:26:20;19.02;;;8.90;;
48667;SDS011;34453;52.198;5.004;2024-01-30T09:28:45;24.75;;;9.63;;
48667;SDS011;34453;52.198;5.004;2024-01-30T09:31:11;12.60;;;8.55;;
48667;SDS011;34453;52.198;5.004;2024-01-30T09:33:37;14.00;;;8.35;;
48667;SDS011;34453;52.198;5.004;2024-01-30T09:36:04;15.10;;;9.20;;
48667;SDS011;34453;52.198;5.004;2024-01-30T09:38:30;19.10;;;8.90;;
48667;SDS011;34453;52.198;5.004;2024-01-30T09:40:56;11.80;;;7.45;;
48667;SDS011;34453;52.198;5.004;2024-01-30T09:45:58;17.95;;;8.00;;
48667;SDS011;34453;52.198;5.004;2024-01-30T09:48:25;13.80;;;8.27;;
48667;SDS011;34453;52.198;5.004;2024-01-30T09:50:52;12.60;;;8.38;;
48667;SDS011;34453;52.198;5.004;2024-01-30T09:53:18;15.77;;;8.55;;
48667;SDS011;34453;52.198;5.004;2024-01-30T09:55:44;20.45;;;9.40;;
48667;SDS011;34453;52.198;5.004;2024-01-30T09:58:11;11.85;;;7.43;;
48667;SDS011;34453;52.198;5.004;2024-01-30T10:00:37;10.07;;;7.57;;
48667;SDS011;34453;52.198;5.004;2024-01-30T10:03:03;11.45;;;7.85;;
48667;SDS011;34453;52.198;5.004;2024-01-30T10:05:29;14.02;;;7.18;;
48667;SDS011;34453;52.198;5.004;2024-01-30T10:07:59;5.85;;;5.22;;
48667;SDS011;34453;52.198;5.004;2024-01-30T10:10:24;9.05;;;4.65;;
48667;SDS011;34453;52.198;5.004;2024-01-30T10:12:51;13.15;;;5.97;;
48667;SDS011;34453;52.198;5.004;2024-01-30T10:15:17;10.10;;;4.55;;
48667;SDS011;34453;52.198;5.004;2024-01-30T10:17:44;11.05;;;5.55;;
48667;SDS011;34453;52.198;5.004;2024-01-30T10:20:10;25.58;;;6.22;;
48667;SDS011;34453;52.198;5.004;2024-01-30T10:22:36;9.00;;;5.35;;
48667;SDS011;34453;52.198;5.004;2024-01-30T10:25:02;13.63;;;4.55;;
48667;SDS011;34453;52.198;5.004;2024-01-30T10:27:28;12.52;;;4.18;;
48667;SDS011;34453;52.198;5.004;2024-01-30T10:29:54;10.55;;;3.20;;
48667;SDS011;34453;52.198;5.004;2024-01-30T10:32:20;11.35;;;3.65;;
48667;SDS011;34453;52.198;5.004;2024-01-30T10:34:46;10.43;;;3.60;;
48667;SDS011;34453;52.198;5.004;2024-01-30T10:37:12;12.43;;;3.78;;
48667;SDS011;34453;52.198;5.004;2024-01-30T10:39:40;10.15;;;4.00;;
48667;SDS011;34453;52.198;5.004;2024-01-30T10:42:08;18.98;;;4.95;;
48667;SDS011;34453;52.198;5.004;2024-01-30T10:44:39;9.63;;;5.03;;
48667;SDS011;34453;52.198;5.004;2024-01-30T10:47:10;10.18;;;3.88;;
48667;SDS011;34453;52.198;5.004;2024-01-30T10:49:39;7.15;;;3.10;;
48667;SDS011;34453;52.198;5.004;2024-01-30T10:52:06;6.10;;;2.70;;
48667;SDS011;34453;52.198;5.004;2024-01-30T10:54:33;7.22;;;3.65;;
48667;SDS011;34453;52.198;5.004;2024-01-30T10:57:00;6.95;;;2.13;;
48667;SDS011;34453;52.198;5.004;2024-01-30T10:59:29;7.18;;;3.35;;
48667;SDS011;34453;52.198;5.004;2024-01-30T11:01:56;9.02;;;2.45;;
48667;SDS011;34453;52.198;5.004;2024-01-30T11:04:24;10.55;;;2.08;;
48667;SDS011;34453;52.198;5.004;2024-01-30T11:06:50;4.93;;;1.45;;
48667;SDS011;34453;52.198;5.004;2024-01-30T11:09:17;7.00;;;2.25;;
48667;SDS011;34453;52.198;5.004;2024-01-30T11:11:56;4.72;;;2.67;;
48667;SDS011;34453;52.198;5.004;2024-01-30T11:14:26;4.22;;;3.85;;
48667;SDS011;34453;52.198;5.004;2024-01-30T11:16:56;4.97;;;3.78;;
48667;SDS011;34453;52.198;5.004;2024-01-30T11:19:23;7.47;;;2.72;;
48667;SDS011;34453;52.198;5.004;2024-01-30T11:21:51;8.75;;;3.85;;
48667;SDS011;34453;52.198;5.004;2024-01-30T11:24:21;5.57;;;3.13;;
48667;SDS011;34453;52.198;5.004;2024-01-30T11:26:57;5.60;;;3.22;;
48667;SDS011;34453;52.198;5.004;2024-01-30T11:29:28;10.00;;;3.35;;
48667;SDS011;34453;52.198;5.004;2024-01-30T11:31:57;6.32;;;3.78;;
48667;SDS011;34453;52.198;5.004;2024-01-30T11:34:24;7.20;;;3.60;;
48667;SDS011;34453;52.198;5.004;2024-01-30T11:36:56;6.97;;;3.08;;
48667;SDS011;34453;52.198;5.004;2024-01-30T11:39:29;7.18;;;2.92;;
48667;SDS011;34453;52.198;5.004;2024-01-30T11:41:55;7.90;;;3.85;;
48667;SDS011;34453;52.198;5.004;2024-01-30T11:44:21;4.53;;;2.17;;
48667;SDS011;34453;52.198;5.004;2024-01-30T11:46:51;2.53;;;1.60;;
48667;SDS011;34453;52.198;5.004;2024-01-30T11:49:17;1.65;;;1.42;;
48667;SDS011;34453;52.198;5.004;2024-01-30T11:51:43;6.68;;;0.80;;
48667;SDS011;34453;52.198;5.004;2024-01-30T11:54:10;1.80;;;1.60;;
48667;SDS011;34453;52.198;5.004;2024-01-30T11:56:36;3.65;;;1.15;;
48667;SDS011;34453;52.198;5.004;2024-01-30T11:59:02;3.70;;;1.50;;
48667;SDS011;34453;52.198;5.004;2024-01-30T12:01:28;8.45;;;1.23;;
48667;SDS011;34453;52.198;5.004;2024-01-30T12:03:54;11.50;;;2.22;;
48667;SDS011;34453;52.198;5.004;2024-01-30T12:06:22;8.68;;;1.27;;
48667;SDS011;34453;52.198;5.004;2024-01-30T12:09:01;9.48;;;1.55;;
48667;SDS011;34453;52.198;5.004;2024-01-30T12:11:42;5.30;;;1.00;;
48667;SDS011;34453;52.198;5.004;2024-01-30T12:14:12;7.13;;;1.15;;
48667;SDS011;34453;52.198;5.004;2024-01-30T12:16:37;6.30;;;1.10;;
48667;SDS011;34453;52.198;5.004;2024-01-30T12:19:03;4.38;;;1.00;;
48667;SDS011;34453;52.198;5.004;2024-01-30T12:21:29;8.13;;;1.55;;
48667;SDS011;34453;52.198;5.004;2024-01-30T12:23:56;5.15;;;1.48;;
48667;SDS011;34453;52.198;5.004;2024-01-30T12:26:22;8.85;;;1.20;;
48667;SDS011;34453;52.198;5.004;2024-01-30T12:28:50;7.68;;;1.92;;
48667;SDS011;34453;52.198;5.004;2024-01-30T12:31:25;6.38;;;1.27;;
48667;SDS011;34453;52.198;5.004;2024-01-30T12:33:52;7.10;;;1.55;;
48667;SDS011;34453;52.198;5.004;2024-01-30T12:36:17;4.13;;;1.33;;
48667;SDS011;34453;52.198;5.004;2024-01-30T12:38:43;5.00;;;1.05;;
48667;SDS011;34453;52.198;5.004;2024-01-30T12:41:09;3.90;;;1.63;;
48667;SDS011;34453;52.198;5.004;2024-01-30T12:43:35;5.28;;;1.23;;
48667;SDS011;34453;52.198;5.004;2024-01-30T12:46:01;5.32;;;2.20;;
48667;SDS011;34453;52.198;5.004;2024-01-30T12:48:28;8.02;;;1.50;;
48667;SDS011;34453;52.198;5.004;2024-01-30T12:50:54;7.38;;;2.00;;
48667;SDS011;34453;52.198;5.004;2024-01-30T12:53:21;4.10;;;1.98;;
48667;SDS011;34453;52.198;5.004;2024-01-30T12:55:47;1.48;;;1.00;;
48667;SDS011;34453;52.198;5.004;2024-01-30T12:58:12;5.70;;;2.08;;
48667;SDS011;34453;52.198;5.004;2024-01-30T13:00:38;2.20;;;1.20;;
48667;SDS011;34453;52.198;5.004;2024-01-30T13:03:03;11.02;;;1.42;;
48667;SDS011;34453;52.198;5.004;2024-01-30T13:05:29;5.03;;;1.80;;
48667;SDS011;34453;52.198;5.004;2024-01-30T13:07:55;6.43;;;1.58;;
48667;SDS011;34453;52.198;5.004;2024-01-30T13:10:22;3.28;;;1.50;;
48667;SDS011;34453;52.198;5.004;2024-01-30T13:12:48;5.97;;;1.70;;
48667;SDS011;34453;52.198;5.004;2024-01-30T13:15:13;5.00;;;1.50;;
48667;SDS011;34453;52.198;5.004;2024-01-30T13:17:39;11.23;;;1.83;;
48667;SDS011;34453;52.198;5.004;2024-01-30T13:20:04;9.25;;;1.90;;
48667;SDS011;34453;52.198;5.004;2024-01-30T13:22:33;11.48;;;2.20;;
48667;SDS011;34453;52.198;5.004;2024-01-30T13:24:58;4.97;;;1.98;;
48667;SDS011;34453;52.198;5.004;2024-01-30T13:27:24;6.35;;;2.35;;
48667;SDS011;34453;52.198;5.004;2024-01-30T13:29:49;8.07;;;2.47;;
48667;SDS011;34453;52.198;5.004;2024-01-30T13:32:15;10.45;;;2.65;;
48667;SDS011;34453;52.198;5.004;2024-01-30T13:34:41;4.93;;;2.13;;
48667;SDS011;34453;52.198;5.004;2024-01-30T13:37:07;7.50;;;2.30;;
48667;SDS011;34453;52.198;5.004;2024-01-30T13:39:32;3.25;;;2.67;;
48667;SDS011;34453;52.198;5.004;2024-01-30T13:41:58;8.50;;;4.15;;
48667;SDS011;34453;52.198;5.004;2024-01-30T13:44:23;1.83;;;1.73;;
48667;SDS011;34453;52.198;5.004;2024-01-30T13:46:49;9.30;;;2.47;;
48667;SDS011;34453;52.198;5.004;2024-01-30T13:49:15;4.88;;;2.70;;
48667;SDS011;34453;52.198;5.004;2024-01-30T13:51:41;7.88;;;2.08;;
48667;SDS011;34453;52.198;5.004;2024-01-30T13:54:07;5.70;;;2.72;;
48667;SDS011;34453;52.198;5.004;2024-01-30T13:56:33;7.80;;;2.50;;
48667;SDS011;34453;52.198;5.004;2024-01-30T13:58:59;3.30;;;2.67;;
48667;SDS011;34453;52.198;5.004;2024-01-30T14:01:26;7.50;;;2.95;;
48667;SDS011;34453;52.198;5.004;2024-01-30T14:03:51;3.35;;;2.90;;
48667;SDS011;34453;52.198;5.004;2024-01-30T14:06:17;6.72;;;5.28;;
48667;SDS011;34453;52.198;5.004;2024-01-30T14:08:43;12.60;;;3.05;;
48667;SDS011;34453;52.198;5.004;2024-01-30T14:11:09;3.55;;;3.35;;
48667;SDS011;34453;52.198;5.004;2024-01-30T14:13:34;8.52;;;2.55;;
48667;SDS011;34453;52.198;5.004;2024-01-30T14:16:00;3.42;;;2.65;;
48667;SDS011;34453;52.198;5.004;2024-01-30T14:18:26;6.10;;;2.97;;
48667;SDS011;34453;52.198;5.004;2024-01-30T14:20:51;3.42;;;3.20;;
48667;SDS011;34453;52.198;5.004;2024-01-30T14:23:17;2.50;;;2.40;;
48667;SDS011;34453;52.198;5.004;2024-01-30T14:25:43;6.30;;;3.10;;
48667;SDS011;34453;52.198;5.004;2024-01-30T14:28:09;4.00;;;3.10;;
48667;SDS011;34453;52.198;5.004;2024-01-30T14:30:35;4.93;;;3.55;;
48667;SDS011;34453;52.198;5.004;2024-01-30T14:33:01;4.10;;;2.78;;
48667;SDS011;34453;52.198;5.004;2024-01-30T14:35:26;3.53;;;3.25;;